Time;durP1;ratioP1;P1;durP2;ratioP2;P2;SDS_P1;SDS_P2;PMS_P1;PMS_P2;Temp;Humidity;BMP_temperature;BMP_pressure;BME280_temperature;BME280_humidity;BME280_pressure;Samples;Min_cycle;Max_cycle;Signal;HPM_P1;HPM_P2
2021/05/06 00:01:04;;;;;;;4.70;2.22;;;6.70;99.90;;;;;;4886236;29;19911;-76
2021/05/06 00:06:51;;;;;;;8.60;2.33;;;6.70;99.90;;;;;;4929015;29;20051;-75
2021/05/06 00:14:48;;;;;;;7.80;2.08;;;6.70;99.90;;;;;;4928563;29;20046;-76
2021/05/06 00:33:38;;;;;;;5.05;2.10;;;6.60;99.90;;;;;;4937951;29;20051;-77
2021/05/06 00:36:04;;;;;;;4.57;2.20;;;6.60;99.90;;;;;;4942871;29;20039;-75
2021/05/06 00:38:34;;;;;;;7.75;2.72;;;6.50;99.90;;;;;;4943795;29;20027;-76
2021/05/06 00:54:57;;;;;;;10.20;2.47;;;6.40;99.90;;;;;;4940376;29;20089;-75
2021/05/06 01:00:21;;;;;;;8.55;3.03;;;6.30;99.90;;;;;;4942391;29;20034;-76
2021/05/06 01:05:27;;;;;;;4.35;1.95;;;6.30;99.90;;;;;;4942942;29;20139;-74
2021/05/06 01:10:32;;;;;;;9.00;2.35;;;6.20;99.90;;;;;;4941797;29;20059;-75
2021/05/06 01:12:57;;;;;;;9.27;2.28;;;6.30;99.90;;;;;;4942106;29;20278;-76
2021/05/06 01:15:23;;;;;;;6.60;2.50;;;6.20;99.90;;;;;;4946564;29;20031;-75
2021/05/06 01:17:49;;;;;;;4.50;2.15;;;6.20;99.90;;;;;;4937490;29;20504;-75
2021/05/06 01:20:15;;;;;;;5.47;1.80;;;6.20;99.90;;;;;;4940756;29;20107;-75
2021/05/06 01:22:41;;;;;;;7.32;2.05;;;6.20;99.90;;;;;;4936185;29;20032;-75
2021/05/06 01:25:08;;;;;;;7.60;1.60;;;6.20;99.90;;;;;;4937625;29;20038;-75
2021/05/06 01:27:40;;;;;;;5.47;1.80;;;6.20;99.90;;;;;;4942752;29;20050;-75
2021/05/06 01:32:44;;;;;;;4.32;2.13;;;6.20;99.90;;;;;;4942561;29;20043;-75
2021/05/06 01:35:30;;;;;;;8.25;2.47;;;6.20;99.90;;;;;;4942846;29;20031;-75
2021/05/06 01:42:50;;;;;;;6.40;1.80;;;6.10;99.90;;;;;;4945103;29;20051;-75
2021/05/06 01:48:06;;;;;;;6.18;1.75;;;6.10;99.90;;;;;;4941592;29;20086;-76
2021/05/06 01:50:53;;;;;;;4.70;1.80;;;6.00;99.90;;;;;;4942156;29;20039;-74
2021/05/06 01:59:11;;;;;;;4.40;1.70;;;5.90;99.90;;;;;;4926791;29;20439;-76
2021/05/06 02:01:37;;;;;;;6.47;2.65;;;5.90;99.90;;;;;;4947112;29;20032;-74
2021/05/06 02:04:02;;;;;;;8.10;2.70;;;5.90;99.90;;;;;;4942916;29;20608;-75
2021/05/06 02:06:28;;;;;;;6.05;3.00;;;5.90;99.90;;;;;;4946486;29;20083;-74
2021/05/06 02:08:53;;;;;;;7.50;1.75;;;5.90;99.90;;;;;;4950173;29;20062;-76
2021/05/06 02:11:19;;;;;;;5.75;2.00;;;6.00;99.90;;;;;;4934550;29;20059;-76
2021/05/06 02:13:46;;;;;;;10.07;2.70;;;5.90;99.90;;;;;;4944489;29;20019;-77
2021/05/06 02:16:18;;;;;;;6.95;2.00;;;5.90;99.90;;;;;;4943792;29;20039;-76
2021/05/06 02:18:45;;;;;;;3.92;2.03;;;5.90;99.90;;;;;;4942890;29;20033;-76
2021/05/06 02:21:15;;;;;;;7.50;2.03;;;5.80;99.90;;;;;;4945790;29;20052;-74
2021/05/06 02:23:41;;;;;;;7.50;2.88;;;5.80;99.90;;;;;;4952016;29;20035;-75
2021/05/06 02:26:06;;;;;;;4.78;1.80;;;5.80;99.90;;;;;;4946645;29;20024;-74
2021/05/06 02:28:32;;;;;;;6.97;2.65;;;5.80;99.90;;;;;;4954380;29;20023;-75
2021/05/06 02:30:57;;;;;;;8.45;2.22;;;5.80;99.90;;;;;;4954016;29;20039;-74
2021/05/06 02:33:23;;;;;;;5.70;2.38;;;5.80;99.90;;;;;;4949615;29;20051;-73
2021/05/06 02:35:48;;;;;;;4.45;2.95;;;5.70;99.90;;;;;;4946229;29;20054;-76
2021/05/06 02:38:14;;;;;;;8.82;2.30;;;5.80;99.90;;;;;;4941669;29;20030;-75
2021/05/06 02:40:39;;;;;;;6.80;2.30;;;5.80;99.90;;;;;;4941308;29;20458;-75
2021/05/06 02:43:05;;;;;;;8.50;2.40;;;5.80;99.90;;;;;;4946249;28;20065;-75
2021/05/06 02:45:30;;;;;;;7.97;2.70;;;5.80;99.90;;;;;;4951132;29;20035;-75
2021/05/06 02:47:56;;;;;;;8.88;2.50;;;5.80;99.90;;;;;;4951189;29;20038;-75
2021/05/06 02:50:23;;;;;;;7.45;2.58;;;5.80;99.90;;;;;;4945234;29;20079;-74
2021/05/06 02:55:37;;;;;;;8.98;2.50;;;5.70;99.90;;;;;;4950383;29;20030;-75
2021/05/06 02:58:13;;;;;;;6.95;2.10;;;5.80;99.90;;;;;;4942412;29;20034;-75
2021/05/06 03:03:23;;;;;;;4.70;2.05;;;5.70;99.90;;;;;;4937570;29;20047;-75
2021/05/06 03:05:53;;;;;;;8.25;2.10;;;5.70;99.90;;;;;;4945665;29;20020;-75
2021/05/06 03:08:24;;;;;;;7.32;2.03;;;5.70;99.90;;;;;;4939392;29;20112;-75
2021/05/06 03:23:47;;;;;;;9.77;2.10;;;5.50;99.90;;;;;;4946765;29;20038;-75
2021/05/06 03:26:13;;;;;;;5.82;2.20;;;5.50;99.90;;;;;;4950276;29;20043;-74
2021/05/06 03:28:46;;;;;;;4.53;1.85;;;5.50;99.90;;;;;;4947139;29;20110;-76
2021/05/06 03:42:20;;;;;;;8.88;2.70;;;5.10;99.90;;;;;;4938385;29;20557;-75
2021/05/06 03:44:58;;;;;;;5.40;2.40;;;5.00;99.90;;;;;;4930659;29;20389;-75
2021/05/06 04:17:23;;;;;;;7.13;2.65;;;5.00;99.90;;;;;;4918943;29;20570;-74
2021/05/06 04:28:21;;;;;;;6.40;2.72;;;5.10;99.90;;;;;;4921835;29;20028;-74
2021/05/06 04:36:07;;;;;;;9.43;3.47;;;5.10;99.90;;;;;;4922288;29;20422;-74
2021/05/06 04:38:32;;;;;;;10.20;2.30;;;5.20;99.90;;;;;;4923951;29;20030;-74
2021/05/06 04:41:26;;;;;;;3.53;2.13;;;5.20;99.90;;;;;;4922079;29;20020;-74
2021/05/06 04:44:36;;;;;;;5.40;2.28;;;5.20;99.90;;;;;;4920129;29;20388;-74
2021/05/06 04:54:44;;;;;;;13.18;3.22;;;5.50;99.90;;;;;;4923235;29;20130;-74
2021/05/06 05:05:22;;;;;;;5.18;2.63;;;5.70;99.90;;;;;;4922119;29;20077;-75
2021/05/06 05:07:53;;;;;;;5.60;2.75;;;5.90;99.90;;;;;;4919130;29;20738;-74
2021/05/06 05:10:46;;;;;;;6.18;3.00;;;6.00;99.90;;;;;;4917590;29;20155;-75
2021/05/06 05:18:49;;;;;;;5.28;1.88;;;7.60;99.90;;;;;;4921466;29;20076;-74
2021/05/06 05:21:22;;;;;;;4.70;2.10;;;8.90;96.20;;;;;;4920302;29;20027;-75
2021/05/06 05:26:16;;;;;;;6.32;2.38;;;11.00;80.30;;;;;;4907428;29;20043;-75
2021/05/06 05:28:42;;;;;;;4.45;2.10;;;12.00;70.70;;;;;;4922358;29;20575;-76
2021/05/06 05:31:08;;;;;;;6.93;2.88;;;12.70;65.20;;;;;;4919257;29;20123;-74
2021/05/06 05:33:48;;;;;;;7.22;2.45;;;12.60;64.40;;;;;;4940771;29;20051;-77
2021/05/06 05:36:19;;;;;;;6.82;2.60;;;12.20;64.80;;;;;;4943047;29;20031;-75
2021/05/06 05:42:00;;;;;;;6.32;2.53;;;10.80;68.70;;;;;;4941661;29;20118;-76
2021/05/06 05:44:53;;;;;;;7.65;2.90;;;9.90;71.90;;;;;;4940221;29;20027;-75
2021/05/06 05:55:16;;;;;;;7.65;2.92;;;8.40;90.00;;;;;;4949987;29;20030;-75
2021/05/06 05:57:42;;;;;;;8.32;3.08;;;8.50;91.00;;;;;;4941979;29;20218;-75
2021/05/06 06:00:08;;;;;;;5.53;2.70;;;8.60;91.60;;;;;;4944277;29;20032;-75
2021/05/06 06:02:35;;;;;;;8.50;3.03;;;8.80;90.40;;;;;;4952368;29;20035;-76
2021/05/06 06:05:00;;;;;;;8.63;2.88;;;9.00;90.10;;;;;;4938541;29;20512;-77
2021/05/06 06:07:26;;;;;;;7.82;3.05;;;9.00;90.20;;;;;;4944410;29;20031;-76
2021/05/06 06:09:52;;;;;;;7.78;2.92;;;9.00;87.10;;;;;;4952537;29;20027;-76
2021/05/06 06:12:17;;;;;;;6.80;2.08;;;9.30;86.10;;;;;;4947664;29;20032;-77
2021/05/06 06:17:12;;;;;;;12.10;5.05;;;9.50;80.90;;;;;;4948057;29;20028;-76
2021/05/06 06:19:38;;;;;;;8.38;2.75;;;9.60;81.60;;;;;;4944026;29;20027;-76
2021/05/06 06:22:10;;;;;;;11.20;2.88;;;9.50;79.40;;;;;;4944433;29;20038;-77
2021/05/06 06:24:35;;;;;;;7.68;2.45;;;9.50;79.80;;;;;;4939880;29;20039;-76
2021/05/06 06:27:01;;;;;;;6.90;2.20;;;9.70;79.50;;;;;;4946278;29;20501;-77
2021/05/06 06:29:31;;;;;;;7.13;2.33;;;9.70;78.70;;;;;;4939654;29;20478;-77
2021/05/06 06:31:57;;;;;;;9.10;2.70;;;9.90;78.80;;;;;;4934417;29;20074;-75
2021/05/06 06:34:22;;;;;;;7.93;2.88;;;10.20;77.50;;;;;;4939754;29;20494;-77
2021/05/06 06:36:49;;;;;;;8.07;3.03;;;10.20;75.60;;;;;;4933782;29;20059;-76
2021/05/06 06:39:16;;;;;;;7.15;3.08;;;10.30;76.20;;;;;;4937465;29;20439;-77
2021/05/06 06:41:45;;;;;;;6.32;2.28;;;10.70;73.00;;;;;;4943151;29;20498;-77
2021/05/06 06:44:13;;;;;;;6.72;2.40;;;11.00;69.70;;;;;;4940764;29;20069;-77
2021/05/06 06:46:39;;;;;;;4.25;2.13;;;11.80;66.40;;;;;;4943197;29;20105;-76
2021/05/06 06:49:04;;;;;;;6.65;2.60;;;13.00;62.30;;;;;;4936719;29;20020;-77
2021/05/06 06:51:30;;;;;;;7.90;2.60;;;14.00;56.70;;;;;;4939971;29;20051;-77
2021/05/06 06:54:14;;;;;;;3.85;1.95;;;15.00;53.60;;;;;;4937446;29;20024;-73
2021/05/06 06:56:40;;;;;;;9.50;2.05;;;15.80;50.20;;;;;;4936084;29;20031;-76
2021/05/06 06:59:12;;;;;;;9.13;2.83;;;16.20;49.20;;;;;;4941318;29;20479;-76
2021/05/06 07:01:38;;;;;;;8.23;2.38;;;15.60;49.30;;;;;;4940370;29;20502;-75
2021/05/06 07:04:04;;;;;;;4.68;2.88;;;14.90;50.30;;;;;;4942594;29;20060;-75
2021/05/06 07:06:30;;;;;;;6.00;2.20;;;14.40;51.40;;;;;;4943156;29;20066;-75
2021/05/06 07:08:56;;;;;;;3.20;2.10;;;14.90;51.50;;;;;;4944111;29;20031;-74
2021/05/06 07:11:21;;;;;;;4.43;2.13;;;15.70;50.20;;;;;;4940229;29;20474;-74
2021/05/06 07:13:47;;;;;;;5.60;2.30;;;16.70;47.20;;;;;;4940824;29;20032;-75
2021/05/06 07:16:13;;;;;;;7.82;2.85;;;16.40;47.30;;;;;;4940885;29;20020;-75
2021/05/06 07:18:39;;;;;;;71.70;51.75;;;16.10;48.10;;;;;;4942199;29;20482;-73
2021/05/06 07:21:06;;;;;;;215.30;152.75;;;17.00;48.00;;;;;;4942847;29;20083;-73
2021/05/06 07:23:32;;;;;;;36.60;27.38;;;17.70;46.10;;;;;;4939479;29;20043;-72
2021/05/06 07:25:59;;;;;;;8.38;4.07;;;17.10;46.00;;;;;;4935338;29;20031;-74
2021/05/06 07:28:39;;;;;;;4.30;1.98;;;15.90;46.90;;;;;;4940211;29;20399;-75
2021/05/06 07:31:06;;;;;;;5.60;2.25;;;15.30;48.10;;;;;;4930634;29;20152;-75
2021/05/06 07:33:32;;;;;;;4.18;1.80;;;15.10;48.60;;;;;;4917431;29;20040;-75
2021/05/06 07:35:59;;;;;;;4.80;2.63;;;14.50;48.40;;;;;;4935813;29;20107;-74
2021/05/06 07:38:27;;;;;;;5.13;2.25;;;14.40;48.50;;;;;;4940417;29;20079;-74
2021/05/06 07:40:53;;;;;;;6.10;2.08;;;14.70;48.30;;;;;;4943551;29;20028;-74
2021/05/06 07:43:19;;;;;;;4.53;1.70;;;14.20;47.60;;;;;;4943002;29;20031;-75
2021/05/06 07:45:45;;;;;;;7.43;2.00;;;13.80;48.80;;;;;;4942134;29;20047;-75
2021/05/06 07:48:10;;;;;;;6.50;2.67;;;14.00;49.40;;;;;;4937599;29;20031;-75
2021/05/06 07:50:36;;;;;;;5.28;2.03;;;13.40;48.90;;;;;;4941909;29;20513;-76
2021/05/06 07:53:09;;;;;;;4.88;1.95;;;13.00;50.20;;;;;;4943046;29;20047;-74
2021/05/06 07:55:35;;;;;;;5.50;1.63;;;14.20;49.30;;;;;;4942255;29;20361;-75
2021/05/06 07:58:05;;;;;;;4.10;1.70;;;14.80;47.00;;;;;;4931239;29;20148;-75
2021/05/06 08:00:31;;;;;;;2.72;1.65;;;15.50;46.50;;;;;;4943762;29;20071;-75
2021/05/06 08:02:57;;;;;;;7.97;1.90;;;16.00;45.80;;;;;;4932426;29;20095;-76
2021/05/06 08:05:23;;;;;;;4.47;1.60;;;16.50;44.00;;;;;;4943883;29;20110;-74
2021/05/06 08:07:50;;;;;;;7.60;2.15;;;15.90;45.10;;;;;;4941166;29;20055;-76
2021/05/06 08:10:17;;;;;;;3.72;1.60;;;16.00;45.40;;;;;;4942171;29;20035;-75
2021/05/06 08:12:43;;;;;;;3.90;1.45;;;16.00;44.90;;;;;;4943976;29;20122;-74
2021/05/06 08:15:10;;;;;;;5.38;1.83;;;15.50;44.60;;;;;;4934481;29;20027;-76
2021/05/06 08:17:37;;;;;;;6.35;2.00;;;15.10;45.80;;;;;;4941462;29;20035;-75
2021/05/06 08:20:09;;;;;;;5.55;2.22;;;14.40;47.00;;;;;;4940652;29;20032;-75
2021/05/06 08:22:35;;;;;;;2.53;1.60;;;13.50;48.00;;;;;;4940325;29;20027;-76
2021/05/06 08:25:01;;;;;;;4.55;1.83;;;13.00;49.00;;;;;;4937937;29;20032;-75
2021/05/06 08:27:27;;;;;;;7.15;2.20;;;12.60;50.10;;;;;;4940188;29;20028;-75
2021/05/06 08:29:55;;;;;;;8.18;2.63;;;12.20;51.00;;;;;;4940647;29;20127;-75
2021/05/06 08:32:21;;;;;;;5.22;1.80;;;12.30;50.70;;;;;;4931866;29;20024;-75
2021/05/06 08:34:46;;;;;;;4.97;2.28;;;12.30;51.30;;;;;;4931212;29;20046;-75
2021/05/06 08:37:12;;;;;;;4.88;2.00;;;12.00;51.40;;;;;;4934155;29;20031;-75
2021/05/06 08:39:37;;;;;;;5.53;1.77;;;12.50;51.20;;;;;;4932111;29;20103;-74
2021/05/06 08:42:03;;;;;;;4.05;1.98;;;12.90;50.40;;;;;;4932174;29;20078;-75
2021/05/06 08:44:33;;;;;;;4.70;2.17;;;13.30;49.70;;;;;;4932011;29;20035;-75
2021/05/06 08:47:05;;;;;;;3.80;2.17;;;13.70;49.60;;;;;;4929139;29;20170;-75
2021/05/06 08:49:36;;;;;;;5.07;2.60;;;14.80;49.20;;;;;;4928144;29;20266;-75
2021/05/06 08:52:04;;;;;;;8.30;3.03;;;16.70;46.60;;;;;;4929368;29;20028;-75
2021/05/06 08:54:30;;;;;;;6.88;3.05;;;18.00;44.70;;;;;;4935760;29;20078;-75
2021/05/06 08:56:57;;;;;;;6.80;3.30;;;17.90;45.30;;;;;;4935619;29;20031;-75
2021/05/06 08:59:23;;;;;;;6.40;3.30;;;17.30;46.50;;;;;;4930555;29;20088;-75
2021/05/06 09:01:51;;;;;;;6.15;3.58;;;16.60;47.80;;;;;;4929390;29;20059;-75
2021/05/06 09:04:17;;;;;;;8.32;3.58;;;15.50;49.60;;;;;;4932312;29;20452;-76
2021/05/06 09:07:15;;;;;;;5.07;3.45;;;15.20;50.60;;;;;;4929563;29;20035;-76
2021/05/06 09:09:50;;;;;;;8.02;4.20;;;15.10;50.00;;;;;;4908866;29;20028;-75
2021/05/06 09:12:32;;;;;;;7.05;4.38;;;14.70;51.30;;;;;;4925420;29;20023;-76
2021/05/06 09:15:13;;;;;;;112.35;84.50;;;14.20;52.70;;;;;;4928376;29;20028;-72
2021/05/06 09:17:39;;;;;;;79.22;59.58;;;13.80;53.30;;;;;;4927322;29;20174;-71
2021/05/06 09:20:14;;;;;;;151.30;112.63;;;12.80;56.00;;;;;;4928474;29;20063;-71
2021/05/06 09:22:47;;;;;;;7.50;4.40;;;13.00;55.70;;;;;;4932387;29;20032;-75
2021/05/06 09:25:32;;;;;;;7.63;4.05;;;13.20;55.10;;;;;;4926770;29;20510;-75
2021/05/06 09:28:05;;;;;;;4.78;3.70;;;13.10;53.60;;;;;;4932380;29;20031;-75
2021/05/06 09:30:50;;;;;;;5.57;4.35;;;13.50;52.40;;;;;;4935687;29;20206;-74
2021/05/06 09:33:18;;;;;;;5.60;4.20;;;13.20;52.60;;;;;;4934561;29;20043;-75
2021/05/06 09:35:48;;;;;;;5.97;4.57;;;12.30;54.50;;;;;;4948965;29;20079;-74
2021/05/06 09:38:31;;;;;;;8.77;4.22;;;11.90;56.10;;;;;;4949723;29;20031;-74
2021/05/06 09:41:01;;;;;;;8.30;5.05;;;11.80;57.10;;;;;;4942677;29;20047;-75
2021/05/06 09:43:35;;;;;;;6.78;4.35;;;11.80;57.60;;;;;;4946079;29;20032;-75
2021/05/06 09:46:04;;;;;;;6.45;4.70;;;12.10;57.50;;;;;;4948918;29;20393;-75
2021/05/06 09:48:33;;;;;;;8.77;5.72;;;12.30;57.80;;;;;;4952624;29;20148;-75
2021/05/06 09:51:04;;;;;;;7.60;4.53;;;13.10;56.00;;;;;;4947510;29;20544;-76
2021/05/06 09:53:32;;;;;;;;;;;14.40;53.50;;;;;;4952286;28;20097;-75
2021/05/06 09:55:59;;;;;;;7.82;4.53;;;15.00;52.00;;;;;;4947590;29;19910;-75
2021/05/06 09:58:28;;;;;;;6.22;3.90;;;14.90;51.80;;;;;;4949497;29;20032;-76
2021/05/06 10:00:55;;;;;;;7.95;4.20;;;14.80;52.10;;;;;;4944101;29;20051;-75
2021/05/06 10:03:23;;;;;;;5.40;3.70;;;14.20;52.40;;;;;;4951380;29;20505;-76
2021/05/06 10:05:50;;;;;;;10.25;4.55;;;14.20;53.30;;;;;;4950026;29;20027;-75
2021/05/06 10:08:16;;;;;;;6.63;4.38;;;13.80;54.00;;;;;;4954123;29;20027;-75
2021/05/06 10:10:43;;;;;;;6.32;4.03;;;13.60;54.10;;;;;;4946942;29;20019;-75
2021/05/06 10:13:10;;;;;;;7.45;4.65;;;13.30;54.40;;;;;;4951287;29;20027;-75
2021/05/06 10:15:37;;;;;;;5.68;4.10;;;12.90;55.50;;;;;;4946995;29;20082;-76
2021/05/06 10:18:03;;;;;;;5.45;3.80;;;12.90;56.10;;;;;;4951390;29;20102;-75
2021/05/06 10:20:29;;;;;;;6.05;3.85;;;12.90;55.80;;;;;;4949048;29;20054;-75
2021/05/06 10:22:56;;;;;;;9.32;4.50;;;12.60;56.40;;;;;;4953494;29;20561;-75
2021/05/06 10:25:25;;;;;;;8.00;4.32;;;12.40;57.00;;;;;;4944623;29;20047;-75
2021/05/06 10:27:51;;;;;;;4.65;4.15;;;12.30;57.90;;;;;;4946371;29;20057;-75
2021/05/06 10:30:19;;;;;;;6.60;4.65;;;12.10;58.40;;;;;;4946470;29;20337;-76
2021/05/06 10:32:45;;;;;;;5.60;4.43;;;11.60;65.90;;;;;;4948528;29;20126;-75
2021/05/06 10:35:19;;;;;;;7.80;5.45;;;11.30;69.90;;;;;;4942419;29;20115;-75
2021/05/06 10:37:51;;;;;;;7.03;5.38;;;10.40;93.90;;;;;;4935415;29;20103;-75
2021/05/06 10:40:20;;;;;;;9.45;5.22;;;10.30;96.50;;;;;;4941802;29;20047;-75
2021/05/06 10:42:45;;;;;;;7.45;5.10;;;10.10;99.90;;;;;;4946592;29;20082;-75
2021/05/06 10:45:14;;;;;;;7.22;5.15;;;10.00;99.90;;;;;;4941119;29;20494;-76
2021/05/06 10:47:42;;;;;;;10.18;6.50;;;9.90;99.90;;;;;;4926065;29;20031;-75
2021/05/06 10:50:16;;;;;;;8.23;5.65;;;9.80;99.90;;;;;;4943714;29;20055;-74
2021/05/06 10:52:43;;;;;;;6.43;5.40;;;9.90;99.90;;;;;;4940989;29;20688;-74
2021/05/06 10:55:11;;;;;;;9.45;7.03;;;9.70;99.90;;;;;;4940159;29;20070;-77
2021/05/06 10:57:40;;;;;;;10.10;8.30;;;9.60;99.90;;;;;;4941539;29;20374;-74
2021/05/06 11:00:38;;;;;;;7.47;6.38;;;9.80;99.90;;;;;;4925962;29;20037;-76
2021/05/06 11:03:24;;;;;;;9.50;6.65;;;10.70;99.90;;;;;;4918745;29;20126;-74
2021/05/06 11:05:50;;;;;;;6.25;5.65;;;11.10;99.90;;;;;;4943384;28;20066;-73
2021/05/06 11:08:18;;;;;;;6.53;5.80;;;11.00;99.90;;;;;;4946202;29;20038;-73
2021/05/06 11:10:47;;;;;;;8.15;6.70;;;12.40;99.90;;;;;;4945427;29;20261;-72
2021/05/06 11:13:14;;;;;;;6.78;5.55;;;12.50;99.90;;;;;;4934177;29;20031;-74
2021/05/06 11:15:40;;;;;;;6.93;5.80;;;12.40;99.90;;;;;;4946539;29;20026;-74
2021/05/06 11:18:09;;;;;;;6.68;5.45;;;12.30;99.90;;;;;;4949049;29;20055;-72
2021/05/06 11:20:41;;;;;;;7.75;5.85;;;13.00;99.90;;;;;;4944755;29;20087;-72
2021/05/06 11:23:25;;;;;;;6.40;5.47;;;14.10;98.20;;;;;;4949562;29;20038;-74
2021/05/06 11:26:11;;;;;;;7.40;5.07;;;15.30;91.80;;;;;;4930058;29;20051;-74
2021/05/06 11:28:36;;;;;;;6.70;4.88;;;16.50;82.40;;;;;;4934763;29;20031;-74
2021/05/06 11:31:02;;;;;;;5.50;5.00;;;15.70;86.90;;;;;;4930750;29;20044;-73
2021/05/06 11:33:28;;;;;;;5.32;4.82;;;15.40;90.30;;;;;;4948560;29;20055;-73
2021/05/06 11:36:04;;;;;;;5.82;5.22;;;15.70;83.60;;;;;;4939583;29;20102;-74
2021/05/06 11:38:35;;;;;;;5.97;5.35;;;16.20;80.80;;;;;;4952268;29;20031;-74
2021/05/06 11:41:15;;;;;;;5.47;4.90;;;15.70;79.20;;;;;;4943830;29;20038;-73
2021/05/06 11:43:45;;;;;;;6.15;5.45;;;15.70;79.90;;;;;;4948060;29;20031;-74
2021/05/06 11:46:17;;;;;;;5.07;4.68;;;16.80;71.90;;;;;;4943101;29;20118;-74
2021/05/06 11:48:44;;;;;;;5.47;4.80;;;18.10;65.50;;;;;;4945546;29;20039;-73
2021/05/06 11:51:25;;;;;;;5.28;4.47;;;17.70;61.70;;;;;;4946215;29;20490;-75
2021/05/06 11:54:18;;;;;;;5.43;4.93;;;17.20;62.00;;;;;;4945211;29;20032;-73
2021/05/06 11:56:54;;;;;;;5.50;4.80;;;16.60;64.40;;;;;;4945678;29;20047;-74
2021/05/06 11:59:21;;;;;;;4.82;4.43;;;17.70;59.90;;;;;;4947642;29;20467;-73
2021/05/06 12:01:47;;;;;;;5.60;4.70;;;16.50;61.20;;;;;;4945824;29;20500;-73
2021/05/06 12:04:27;;;;;;;5.75;5.25;;;15.60;64.70;;;;;;4943997;29;20032;-73
2021/05/06 12:06:53;;;;;;;8.07;5.60;;;14.90;66.70;;;;;;4932745;29;20086;-72
2021/05/06 12:09:23;;;;;;;6.18;5.05;;;14.50;69.80;;;;;;4943657;29;20117;-74
2021/05/06 12:11:49;;;;;;;7.27;6.20;;;14.00;69.50;;;;;;4947922;29;20106;-73
2021/05/06 12:14:15;;;;;;;6.22;5.53;;;13.90;71.00;;;;;;4943421;29;20441;-72
2021/05/06 12:16:41;;;;;;;6.10;5.35;;;14.10;74.80;;;;;;4940017;28;20027;-73
2021/05/06 12:19:11;;;;;;;7.50;5.50;;;14.30;75.30;;;;;;4945048;29;20028;-73
2021/05/06 12:21:47;;;;;;;6.05;5.32;;;16.30;65.90;;;;;;4942830;29;20019;-75
2021/05/06 12:24:32;;;;;;;5.05;4.35;;;17.40;58.10;;;;;;4929357;29;20032;-74
2021/05/06 12:26:59;;;;;;;5.18;4.55;;;16.40;58.90;;;;;;4937891;29;20206;-74
2021/05/06 12:29:28;;;;;;;5.30;4.80;;;16.70;59.10;;;;;;4944577;29;20402;-75
2021/05/06 12:31:54;;;;;;;5.70;4.38;;;17.00;57.10;;;;;;4939278;29;20028;-74
2021/05/06 12:34:21;;;;;;;4.40;3.53;;;17.10;57.50;;;;;;4944470;29;20043;-75
2021/05/06 12:36:58;;;;;;;4.18;3.75;;;18.40;55.70;;;;;;4944699;29;20034;-74
2021/05/06 12:39:25;;;;;;;4.55;3.60;;;18.10;54.10;;;;;;4940163;29;20089;-74
2021/05/06 12:41:52;;;;;;;4.88;4.30;;;18.20;52.70;;;;;;4953157;29;20023;-74
2021/05/06 12:44:42;;;;;;;5.25;4.13;;;18.50;50.40;;;;;;4951269;29;20027;-74
2021/05/06 12:47:28;;;;;;;5.60;4.90;;;18.40;51.20;;;;;;4949147;29;20086;-74
2021/05/06 12:50:25;;;;;;;4.53;4.13;;;18.40;52.50;;;;;;4945259;29;20027;-75
2021/05/06 12:52:52;;;;;;;4.47;3.33;;;17.80;54.70;;;;;;4951978;29;20030;-73
2021/05/06 12:55:22;;;;;;;5.95;4.20;;;16.70;58.30;;;;;;4952951;29;20028;-73
2021/05/06 12:58:14;;;;;;;5.87;3.87;;;15.90;62.70;;;;;;4951587;29;20027;-73
2021/05/06 13:01:00;;;;;;;4.13;3.50;;;14.90;65.00;;;;;;4952688;29;20035;-73
2021/05/06 13:03:35;;;;;;;4.63;3.40;;;14.60;66.40;;;;;;4932042;29;20039;-73
2021/05/06 13:06:08;;;;;;;3.78;3.40;;;14.30;70.00;;;;;;4939605;29;20653;-73
2021/05/06 13:08:39;;;;;;;4.53;4.10;;;14.30;70.90;;;;;;4952112;29;20038;-76
2021/05/06 13:11:07;;;;;;;85.60;53.78;;;14.00;73.60;;;;;;4950768;29;20035;-73
2021/05/06 13:13:40;;;;;;;38.95;29.77;;;13.70;74.10;;;;;;4947419;29;20035;-73
2021/05/06 13:16:08;;;;;;;6.35;5.03;;;13.40;76.20;;;;;;4950623;29;20030;-73
2021/05/06 13:18:34;;;;;;;4.13;3.72;;;13.40;72.60;;;;;;4934354;29;20467;-74
2021/05/06 13:21:02;;;;;;;5.45;3.83;;;13.50;72.30;;;;;;4931699;29;20563;-73
2021/05/06 13:23:35;;;;;;;5.72;4.20;;;13.90;68.80;;;;;;4935775;29;20255;-73
2021/05/06 13:26:06;;;;;;;4.75;4.00;;;14.90;67.20;;;;;;4936450;29;20053;-73
2021/05/06 13:28:32;;;;;;;6.00;4.25;;;16.00;61.70;;;;;;4934299;28;20091;-73
2021/05/06 13:31:20;;;;;;;6.50;5.10;;;16.50;59.00;;;;;;4938130;29;20035;-73
2021/05/06 13:33:47;;;;;;;5.55;4.90;;;17.00;58.40;;;;;;4937136;29;20522;-74
2021/05/06 13:36:17;;;;;;;5.18;4.20;;;17.60;55.70;;;;;;4939235;29;20034;-74
2021/05/06 13:38:47;;;;;;;4.47;3.85;;;16.40;54.60;;;;;;4913991;29;20098;-74
2021/05/06 13:41:18;;;;;;;5.75;3.75;;;16.20;55.80;;;;;;4936631;29;20427;-73
2021/05/06 13:43:43;;;;;;;5.47;3.55;;;15.20;58.90;;;;;;4922809;29;20735;-73
2021/05/06 13:46:10;;;;;;;7.00;5.10;;;14.20;62.50;;;;;;4937786;29;20075;-74
2021/05/06 13:48:39;;;;;;;8.05;6.53;;;13.60;65.90;;;;;;4942863;29;20549;-74
2021/05/06 13:51:05;;;;;;;5.15;4.45;;;13.40;68.00;;;;;;4944209;29;20031;-73
2021/05/06 13:53:31;;;;;;;5.43;4.22;;;13.20;68.90;;;;;;4948299;29;20054;-73
2021/05/06 13:55:57;;;;;;;3.95;3.53;;;13.20;64.80;;;;;;4937475;29;20047;-73
2021/05/06 13:58:23;;;;;;;5.85;3.60;;;13.20;65.30;;;;;;4936204;29;20041;-73
2021/05/06 14:00:48;;;;;;;6.32;3.90;;;13.30;62.60;;;;;;4941652;29;20039;-73
2021/05/06 14:03:14;;;;;;;3.40;3.00;;;13.50;62.70;;;;;;4937794;29;20043;-75
2021/05/06 14:05:40;;;;;;;3.75;3.35;;;13.40;61.90;;;;;;4934433;29;20032;-74
2021/05/06 14:08:05;;;;;;;5.22;3.92;;;13.40;61.70;;;;;;4932340;29;20028;-73
2021/05/06 14:10:31;;;;;;;3.47;3.17;;;13.20;62.10;;;;;;4935316;29;20027;-73
2021/05/06 14:12:56;;;;;;;3.42;2.83;;;13.00;61.30;;;;;;4918785;29;20498;-73
2021/05/06 14:15:22;;;;;;;5.15;3.53;;;13.00;61.00;;;;;;4936561;29;20386;-74
2021/05/06 14:17:48;;;;;;;3.58;3.28;;;;;;;;;;4934357;29;20039;-73
2021/05/06 14:20:13;;;;;;;5.88;3.67;;;13.40;60.20;;;;;;4932158;29;20035;-73
2021/05/06 14:22:39;;;;;;;3.95;3.50;;;13.50;59.30;;;;;;4931472;29;20051;-73
2021/05/06 14:25:05;;;;;;;3.50;3.20;;;13.80;57.90;;;;;;4943322;29;20082;-73
2021/05/06 14:27:33;;;;;;;3.97;3.40;;;14.20;57.80;;;;;;4951075;29;20605;-73
2021/05/06 14:29:59;;;;;;;3.78;3.10;;;14.20;57.00;;;;;;4950555;29;20093;-73
2021/05/06 14:32:24;;;;;;;4.30;3.10;;;14.10;57.30;;;;;;4951090;29;20482;-73
2021/05/06 14:34:50;;;;;;;4.28;3.33;;;13.90;58.00;;;;;;4951948;29;20110;-75
2021/05/06 14:37:15;;;;;;;4.18;3.70;;;13.50;58.30;;;;;;4950869;28;20067;-73
2021/05/06 14:39:41;;;;;;;3.70;3.38;;;13.70;57.60;;;;;;4953441;28;20035;-76
2021/05/06 14:42:06;;;;;;;3.58;3.28;;;13.70;58.00;;;;;;4957728;28;20027;-76
2021/05/06 14:44:32;;;;;;;2.83;2.30;;;14.20;56.40;;;;;;4957502;29;20382;-73
2021/05/06 14:46:57;;;;;;;4.45;2.42;;;14.70;55.00;;;;;;4957924;29;20094;-73
2021/05/06 14:49:23;;;;;;;3.00;2.42;;;14.80;53.80;;;;;;4957783;29;20410;-73
2021/05/06 14:51:48;;;;;;;3.05;2.72;;;14.80;53.20;;;;;;4958247;29;20034;-73
2021/05/06 14:54:14;;;;;;;3.25;2.40;;;14.80;53.50;;;;;;4954501;28;20035;-74
2021/05/06 14:56:39;;;;;;;2.67;2.35;;;14.80;52.60;;;;;;4946052;28;20028;-74
2021/05/06 14:59:05;;;;;;;4.45;2.50;;;14.80;52.20;;;;;;4941205;28;20032;-73
2021/05/06 15:01:33;;;;;;;3.25;2.95;;;14.60;52.40;;;;;;4943421;29;20751;-73
2021/05/06 15:03:59;;;;;;;3.58;2.80;;;14.20;53.60;;;;;;4957090;29;20050;-74
2021/05/06 15:06:24;;;;;;;3.70;2.63;;;14.40;53.40;;;;;;4961463;29;20505;-74
2021/05/06 15:08:50;;;;;;;4.55;3.30;;;14.20;52.30;;;;;;4949301;29;20035;-73
2021/05/06 15:11:16;;;;;;;3.78;3.13;;;13.60;54.00;;;;;;4951625;28;20793;-74
2021/05/06 15:13:42;;;;;;;3.05;2.75;;;13.80;54.80;;;;;;4952436;28;20039;-74
2021/05/06 15:16:07;;;;;;;3.58;3.05;;;13.90;53.90;;;;;;4956464;29;20020;-73
2021/05/06 15:18:33;;;;;;;3.30;2.88;;;13.90;53.90;;;;;;4947503;28;20031;-73
2021/05/06 15:20:59;;;;;;;3.60;3.22;;;14.10;56.20;;;;;;4942544;29;20059;-73
2021/05/06 15:23:24;;;;;;;3.78;3.05;;;13.90;64.30;;;;;;4948004;29;20058;-75
2021/05/06 15:25:50;;;;;;;3.53;3.22;;;13.40;69.40;;;;;;4944699;29;20155;-74
2021/05/06 15:28:16;;;;;;;4.00;3.15;;;12.80;76.60;;;;;;4948876;29;20082;-73
2021/05/06 15:30:42;;;;;;;4.97;4.20;;;12.90;80.20;;;;;;4959347;29;20401;-73
2021/05/06 15:33:07;;;;;;;9.10;7.68;;;12.90;81.10;;;;;;4961257;29;20043;-73
2021/05/06 15:35:33;;;;;;;5.38;3.70;;;12.90;82.60;;;;;;4961060;29;20458;-74
2021/05/06 15:37:59;;;;;;;4.25;3.65;;;13.10;83.20;;;;;;4964575;29;20091;-73
2021/05/06 15:40:24;;;;;;;5.65;4.32;;;13.00;83.50;;;;;;4966830;29;20086;-73
2021/05/06 15:42:51;;;;;;;4.20;3.70;;;13.00;84.50;;;;;;4965363;28;20023;-73
2021/05/06 15:45:20;;;;;;;7.15;5.22;;;13.10;80.20;;;;;;4965192;28;20047;-74
2021/05/06 15:47:45;;;;;;;6.95;4.57;;;13.00;77.10;;;;;;4965424;29;20035;-73
2021/05/06 15:50:13;;;;;;;6.10;3.58;;;12.90;77.60;;;;;;4966393;28;20039;-72
2021/05/06 15:52:39;;;;;;;4.75;3.80;;;12.80;81.00;;;;;;4963286;29;20032;-72